New Athens, Illinois
Current Conditions -  °F | °C
As of 3:58 AM on Monday 26 Jan 2015 (Local Time) from KBLV Reporting Station
Broken Clouds Broken Clouds  
Wind Chill: 16°   Ceiling: 20000
Heat Index: 26°   Visibility: 10mi
Dew Point: 22°   Wind: 12mph
Humidity: 84%   Direction: 310°NW
Pressure: 30.04"   Gusts: NA
Location:  38.33°N, 89.88°W
Report Text: KBLV 260958Z AUTO 31010KT 10SM BKN200 M03/M06 A3004 RMK AO2 SLP180 T10321056
Loading
Personal Weather Stations






























Interactive Weather Map New forecast layout! Learn more

10-Day Weather Forecast

Advertisements
Track Severe Weather on mobile